sensor_id;sensor_type;location;lat;lon;timestamp;P1;durP1;ratioP1;P2;durP2;ratioP2
15082;SDS011;7640;53.116;6.878;2023-08-06T00:00:43;28.77;;;23.47;;
15082;SDS011;7640;53.116;6.878;2023-08-06T00:03:14;27.10;;;21.53;;
15082;SDS011;7640;53.116;6.878;2023-08-06T00:05:43;27.20;;;22.33;;
15082;SDS011;7640;53.116;6.878;2023-08-06T00:08:11;29.07;;;21.53;;
15082;SDS011;7640;53.116;6.878;2023-08-06T00:10:40;30.87;;;21.93;;
15082;SDS011;7640;53.116;6.878;2023-08-06T00:13:08;28.23;;;20.07;;
15082;SDS011;7640;53.116;6.878;2023-08-06T00:15:36;32.27;;;22.97;;
15082;SDS011;7640;53.116;6.878;2023-08-06T00:18:06;30.60;;;22.07;;
15082;SDS011;7640;53.116;6.878;2023-08-06T00:20:35;30.70;;;22.43;;
15082;SDS011;7640;53.116;6.878;2023-08-06T00:23:06;25.60;;;21.47;;
15082;SDS011;7640;53.116;6.878;2023-08-06T00:25:35;31.40;;;21.33;;
15082;SDS011;7640;53.116;6.878;2023-08-06T00:28:04;32.33;;;21.60;;
15082;SDS011;7640;53.116;6.878;2023-08-06T00:30:33;31.17;;;22.13;;
15082;SDS011;7640;53.116;6.878;2023-08-06T00:33:01;32.70;;;24.00;;
15082;SDS011;7640;53.116;6.878;2023-08-06T00:35:31;31.17;;;21.37;;
15082;SDS011;7640;53.116;6.878;2023-08-06T00:38:00;31.37;;;21.80;;
15082;SDS011;7640;53.116;6.878;2023-08-06T00:40:29;37.87;;;24.20;;
15082;SDS011;7640;53.116;6.878;2023-08-06T00:42:58;33.53;;;23.83;;
15082;SDS011;7640;53.116;6.878;2023-08-06T00:45:27;32.57;;;24.47;;
15082;SDS011;7640;53.116;6.878;2023-08-06T00:47:56;30.97;;;23.03;;
15082;SDS011;7640;53.116;6.878;2023-08-06T00:50:25;36.60;;;27.83;;
15082;SDS011;7640;53.116;6.878;2023-08-06T00:52:55;33.67;;;26.90;;
15082;SDS011;7640;53.116;6.878;2023-08-06T00:55:24;30.20;;;24.20;;
15082;SDS011;7640;53.116;6.878;2023-08-06T00:57:53;32.87;;;23.47;;
15082;SDS011;7640;53.116;6.878;2023-08-06T01:00:23;32.67;;;24.80;;
15082;SDS011;7640;53.116;6.878;2023-08-06T01:02:53;37.17;;;26.07;;
15082;SDS011;7640;53.116;6.878;2023-08-06T01:05:21;32.43;;;24.97;;
15082;SDS011;7640;53.116;6.878;2023-08-06T01:07:52;42.60;;;33.20;;
15082;SDS011;7640;53.116;6.878;2023-08-06T01:10:41;48.00;;;39.93;;
15082;SDS011;7640;53.116;6.878;2023-08-06T01:13:23;44.03;;;35.33;;
15082;SDS011;7640;53.116;6.878;2023-08-06T01:16:01;38.97;;;28.47;;
15082;SDS011;7640;53.116;6.878;2023-08-06T01:18:32;33.30;;;26.27;;
15082;SDS011;7640;53.116;6.878;2023-08-06T01:21:02;38.63;;;29.80;;
15082;SDS011;7640;53.116;6.878;2023-08-06T01:23:31;38.03;;;26.83;;
15082;SDS011;7640;53.116;6.878;2023-08-06T01:26:02;33.87;;;26.63;;
15082;SDS011;7640;53.116;6.878;2023-08-06T01:28:44;35.10;;;26.03;;
15082;SDS011;7640;53.116;6.878;2023-08-06T01:31:24;35.60;;;26.43;;
15082;SDS011;7640;53.116;6.878;2023-08-06T01:33:58;40.10;;;34.07;;
15082;SDS011;7640;53.116;6.878;2023-08-06T01:36:32;34.40;;;27.53;;
15082;SDS011;7640;53.116;6.878;2023-08-06T01:39:02;35.37;;;26.93;;
15082;SDS011;7640;53.116;6.878;2023-08-06T01:41:32;36.60;;;30.47;;
15082;SDS011;7640;53.116;6.878;2023-08-06T01:44:01;37.17;;;29.97;;
15082;SDS011;7640;53.116;6.878;2023-08-06T01:46:30;36.17;;;29.53;;
15082;SDS011;7640;53.116;6.878;2023-08-06T01:48:59;33.43;;;27.43;;
15082;SDS011;7640;53.116;6.878;2023-08-06T01:51:28;34.60;;;28.90;;
15082;SDS011;7640;53.116;6.878;2023-08-06T01:53:58;32.60;;;25.93;;
15082;SDS011;7640;53.116;6.878;2023-08-06T01:56:27;34.27;;;28.27;;
15082;SDS011;7640;53.116;6.878;2023-08-06T01:58:55;42.23;;;31.23;;
15082;SDS011;7640;53.116;6.878;2023-08-06T02:01:23;30.77;;;25.50;;
15082;SDS011;7640;53.116;6.878;2023-08-06T02:03:52;48.80;;;38.70;;
15082;SDS011;7640;53.116;6.878;2023-08-06T02:06:20;32.83;;;26.50;;
15082;SDS011;7640;53.116;6.878;2023-08-06T02:08:49;30.87;;;25.13;;
15082;SDS011;7640;53.116;6.878;2023-08-06T02:11:19;29.73;;;24.60;;
15082;SDS011;7640;53.116;6.878;2023-08-06T02:13:48;26.60;;;22.27;;
15082;SDS011;7640;53.116;6.878;2023-08-06T02:16:16;25.93;;;22.63;;
15082;SDS011;7640;53.116;6.878;2023-08-06T02:18:45;25.70;;;20.83;;
15082;SDS011;7640;53.116;6.878;2023-08-06T02:21:13;24.27;;;20.97;;
15082;SDS011;7640;53.116;6.878;2023-08-06T02:23:42;24.40;;;21.13;;
15082;SDS011;7640;53.116;6.878;2023-08-06T02:26:10;24.57;;;19.80;;
15082;SDS011;7640;53.116;6.878;2023-08-06T02:28:40;19.83;;;17.43;;
15082;SDS011;7640;53.116;6.878;2023-08-06T02:31:09;19.37;;;16.83;;
15082;SDS011;7640;53.116;6.878;2023-08-06T02:33:37;20.20;;;15.63;;
15082;SDS011;7640;53.116;6.878;2023-08-06T02:36:05;21.50;;;17.33;;
15082;SDS011;7640;53.116;6.878;2023-08-06T02:38:34;22.27;;;17.87;;
15082;SDS011;7640;53.116;6.878;2023-08-06T02:41:03;23.73;;;18.80;;
15082;SDS011;7640;53.116;6.878;2023-08-06T02:43:32;29.87;;;26.60;;
15082;SDS011;7640;53.116;6.878;2023-08-06T02:46:01;27.00;;;20.10;;
15082;SDS011;7640;53.116;6.878;2023-08-06T02:48:31;23.90;;;19.40;;
15082;SDS011;7640;53.116;6.878;2023-08-06T02:51:00;29.67;;;22.50;;
15082;SDS011;7640;53.116;6.878;2023-08-06T02:53:28;29.80;;;24.23;;
15082;SDS011;7640;53.116;6.878;2023-08-06T02:55:58;35.57;;;26.23;;
15082;SDS011;7640;53.116;6.878;2023-08-06T02:58:27;36.13;;;32.20;;
15082;SDS011;7640;53.116;6.878;2023-08-06T03:00:59;26.40;;;23.03;;
15082;SDS011;7640;53.116;6.878;2023-08-06T03:03:30;28.87;;;23.57;;
15082;SDS011;7640;53.116;6.878;2023-08-06T03:06:00;38.50;;;30.20;;
15082;SDS011;7640;53.116;6.878;2023-08-06T03:08:29;31.03;;;25.67;;
15082;SDS011;7640;53.116;6.878;2023-08-06T03:10:57;71.07;;;54.00;;
15082;SDS011;7640;53.116;6.878;2023-08-06T03:13:26;42.43;;;31.37;;
15082;SDS011;7640;53.116;6.878;2023-08-06T03:15:55;39.80;;;31.10;;
15082;SDS011;7640;53.116;6.878;2023-08-06T03:18:27;31.90;;;24.07;;
15082;SDS011;7640;53.116;6.878;2023-08-06T03:20:57;35.30;;;30.07;;
15082;SDS011;7640;53.116;6.878;2023-08-06T03:23:25;69.97;;;61.80;;
15082;SDS011;7640;53.116;6.878;2023-08-06T03:25:54;50.27;;;41.83;;
15082;SDS011;7640;53.116;6.878;2023-08-06T03:28:22;31.97;;;27.97;;
15082;SDS011;7640;53.116;6.878;2023-08-06T03:30:58;34.93;;;29.47;;
15082;SDS011;7640;53.116;6.878;2023-08-06T03:33:29;39.33;;;32.57;;
15082;SDS011;7640;53.116;6.878;2023-08-06T03:35:58;27.77;;;22.60;;
15082;SDS011;7640;53.116;6.878;2023-08-06T03:38:27;26.70;;;22.80;;
15082;SDS011;7640;53.116;6.878;2023-08-06T03:40:56;31.83;;;28.53;;
15082;SDS011;7640;53.116;6.878;2023-08-06T03:43:24;24.03;;;19.23;;
15082;SDS011;7640;53.116;6.878;2023-08-06T03:45:53;34.47;;;30.63;;
15082;SDS011;7640;53.116;6.878;2023-08-06T03:48:21;27.23;;;22.77;;
15082;SDS011;7640;53.116;6.878;2023-08-06T03:50:51;26.63;;;23.80;;
15082;SDS011;7640;53.116;6.878;2023-08-06T03:53:20;23.77;;;19.63;;
15082;SDS011;7640;53.116;6.878;2023-08-06T03:55:48;25.93;;;23.23;;
15082;SDS011;7640;53.116;6.878;2023-08-06T03:58:16;26.37;;;22.90;;
15082;SDS011;7640;53.116;6.878;2023-08-06T04:00:45;32.50;;;26.63;;
15082;SDS011;7640;53.116;6.878;2023-08-06T04:03:13;25.43;;;22.10;;
15082;SDS011;7640;53.116;6.878;2023-08-06T04:05:43;26.20;;;20.27;;
15082;SDS011;7640;53.116;6.878;2023-08-06T04:08:13;26.17;;;22.07;;
15082;SDS011;7640;53.116;6.878;2023-08-06T04:10:41;27.70;;;21.33;;
15082;SDS011;7640;53.116;6.878;2023-08-06T04:13:10;25.47;;;20.90;;
15082;SDS011;7640;53.116;6.878;2023-08-06T04:15:39;25.07;;;20.17;;
15082;SDS011;7640;53.116;6.878;2023-08-06T04:18:07;25.23;;;20.73;;
15082;SDS011;7640;53.116;6.878;2023-08-06T04:20:42;31.20;;;26.70;;
15082;SDS011;7640;53.116;6.878;2023-08-06T04:23:13;27.07;;;22.10;;
15082;SDS011;7640;53.116;6.878;2023-08-06T04:25:41;25.40;;;22.70;;
15082;SDS011;7640;53.116;6.878;2023-08-06T04:28:10;25.50;;;21.23;;
15082;SDS011;7640;53.116;6.878;2023-08-06T04:30:38;28.73;;;23.23;;
15082;SDS011;7640;53.116;6.878;2023-08-06T04:33:07;28.40;;;23.50;;
15082;SDS011;7640;53.116;6.878;2023-08-06T04:35:35;27.27;;;24.27;;
15082;SDS011;7640;53.116;6.878;2023-08-06T04:38:04;25.60;;;20.67;;
15082;SDS011;7640;53.116;6.878;2023-08-06T04:40:34;21.20;;;18.27;;
15082;SDS011;7640;53.116;6.878;2023-08-06T04:43:03;39.73;;;35.77;;
15082;SDS011;7640;53.116;6.878;2023-08-06T04:45:32;22.30;;;19.90;;
15082;SDS011;7640;53.116;6.878;2023-08-06T04:48:01;23.83;;;19.97;;
15082;SDS011;7640;53.116;6.878;2023-08-06T04:50:30;23.57;;;19.27;;
15082;SDS011;7640;53.116;6.878;2023-08-06T04:52:58;26.03;;;23.30;;
15082;SDS011;7640;53.116;6.878;2023-08-06T04:55:27;23.87;;;19.23;;
15082;SDS011;7640;53.116;6.878;2023-08-06T04:58:00;26.43;;;21.37;;
15082;SDS011;7640;53.116;6.878;2023-08-06T05:00:29;23.43;;;17.20;;
15082;SDS011;7640;53.116;6.878;2023-08-06T05:02:58;21.67;;;17.07;;
15082;SDS011;7640;53.116;6.878;2023-08-06T05:05:27;20.67;;;16.37;;
15082;SDS011;7640;53.116;6.878;2023-08-06T05:07:56;26.73;;;24.00;;
15082;SDS011;7640;53.116;6.878;2023-08-06T05:10:25;20.67;;;18.27;;
15082;SDS011;7640;53.116;6.878;2023-08-06T05:12:54;23.97;;;20.33;;
15082;SDS011;7640;53.116;6.878;2023-08-06T05:15:24;24.97;;;20.87;;
15082;SDS011;7640;53.116;6.878;2023-08-06T05:17:52;22.50;;;17.10;;
15082;SDS011;7640;53.116;6.878;2023-08-06T05:20:21;20.70;;;17.50;;
15082;SDS011;7640;53.116;6.878;2023-08-06T05:22:49;27.63;;;23.60;;
15082;SDS011;7640;53.116;6.878;2023-08-06T05:25:18;24.30;;;17.87;;
15082;SDS011;7640;53.116;6.878;2023-08-06T05:27:47;19.30;;;16.60;;
15082;SDS011;7640;53.116;6.878;2023-08-06T05:30:15;21.77;;;15.93;;
15082;SDS011;7640;53.116;6.878;2023-08-06T05:32:45;19.57;;;17.00;;
15082;SDS011;7640;53.116;6.878;2023-08-06T05:35:14;17.47;;;15.57;;
15082;SDS011;7640;53.116;6.878;2023-08-06T05:37:42;17.23;;;14.93;;
15082;SDS011;7640;53.116;6.878;2023-08-06T05:40:11;19.00;;;15.30;;
15082;SDS011;7640;53.116;6.878;2023-08-06T05:42:39;17.80;;;15.30;;
15082;SDS011;7640;53.116;6.878;2023-08-06T05:45:08;18.13;;;15.37;;
15082;SDS011;7640;53.116;6.878;2023-08-06T05:47:37;18.90;;;15.80;;
15082;SDS011;7640;53.116;6.878;2023-08-06T05:50:08;17.93;;;14.23;;
15082;SDS011;7640;53.116;6.878;2023-08-06T05:52:36;16.33;;;14.43;;
15082;SDS011;7640;53.116;6.878;2023-08-06T05:55:05;18.83;;;14.03;;
15082;SDS011;7640;53.116;6.878;2023-08-06T05:57:35;15.87;;;14.33;;
15082;SDS011;7640;53.116;6.878;2023-08-06T06:00:04;16.63;;;14.30;;
15082;SDS011;7640;53.116;6.878;2023-08-06T06:02:34;16.70;;;14.60;;
15082;SDS011;7640;53.116;6.878;2023-08-06T06:05:02;15.47;;;13.87;;
15082;SDS011;7640;53.116;6.878;2023-08-06T06:07:33;15.30;;;12.93;;
15082;SDS011;7640;53.116;6.878;2023-08-06T06:10:02;15.10;;;13.60;;
15082;SDS011;7640;53.116;6.878;2023-08-06T06:12:31;14.23;;;12.73;;
15082;SDS011;7640;53.116;6.878;2023-08-06T06:15:00;13.93;;;12.43;;
15082;SDS011;7640;53.116;6.878;2023-08-06T06:17:30;16.33;;;13.13;;
15082;SDS011;7640;53.116;6.878;2023-08-06T06:19:58;13.87;;;12.30;;
15082;SDS011;7640;53.116;6.878;2023-08-06T06:22:27;14.43;;;12.10;;
15082;SDS011;7640;53.116;6.878;2023-08-06T06:24:57;13.47;;;12.07;;
15082;SDS011;7640;53.116;6.878;2023-08-06T06:27:26;14.60;;;12.23;;
15082;SDS011;7640;53.116;6.878;2023-08-06T06:29:54;11.70;;;10.57;;
15082;SDS011;7640;53.116;6.878;2023-08-06T06:32:22;12.03;;;10.83;;
15082;SDS011;7640;53.116;6.878;2023-08-06T06:34:51;11.27;;;10.17;;
15082;SDS011;7640;53.116;6.878;2023-08-06T06:37:19;11.57;;;10.27;;
15082;SDS011;7640;53.116;6.878;2023-08-06T06:39:48;12.23;;;11.00;;
15082;SDS011;7640;53.116;6.878;2023-08-06T06:42:18;12.30;;;11.10;;
15082;SDS011;7640;53.116;6.878;2023-08-06T06:44:49;10.47;;;9.13;;
15082;SDS011;7640;53.116;6.878;2023-08-06T06:47:30;11.77;;;10.13;;
15082;SDS011;7640;53.116;6.878;2023-08-06T06:50:00;12.00;;;9.83;;
15082;SDS011;7640;53.116;6.878;2023-08-06T06:52:29;11.40;;;10.30;;
15082;SDS011;7640;53.116;6.878;2023-08-06T06:54:57;12.47;;;10.90;;
15082;SDS011;7640;53.116;6.878;2023-08-06T06:57:27;14.57;;;10.87;;
15082;SDS011;7640;53.116;6.878;2023-08-06T06:59:55;18.63;;;12.27;;
15082;SDS011;7640;53.116;6.878;2023-08-06T07:02:24;13.53;;;11.30;;
15082;SDS011;7640;53.116;6.878;2023-08-06T07:04:53;19.67;;;11.50;;
15082;SDS011;7640;53.116;6.878;2023-08-06T07:07:21;21.83;;;12.47;;
15082;SDS011;7640;53.116;6.878;2023-08-06T07:09:50;17.93;;;11.43;;
15082;SDS011;7640;53.116;6.878;2023-08-06T07:12:18;19.10;;;12.07;;
15082;SDS011;7640;53.116;6.878;2023-08-06T07:14:49;17.77;;;12.13;;
15082;SDS011;7640;53.116;6.878;2023-08-06T07:17:18;11.73;;;10.53;;
15082;SDS011;7640;53.116;6.878;2023-08-06T07:19:46;15.03;;;11.40;;
15082;SDS011;7640;53.116;6.878;2023-08-06T07:22:15;13.83;;;10.67;;
15082;SDS011;7640;53.116;6.878;2023-08-06T07:24:44;12.13;;;10.80;;
15082;SDS011;7640;53.116;6.878;2023-08-06T07:27:12;11.30;;;10.10;;
15082;SDS011;7640;53.116;6.878;2023-08-06T07:29:40;13.80;;;9.93;;
15082;SDS011;7640;53.116;6.878;2023-08-06T07:32:11;11.23;;;10.13;;
15082;SDS011;7640;53.116;6.878;2023-08-06T07:34:39;10.70;;;9.67;;
15082;SDS011;7640;53.116;6.878;2023-08-06T07:37:08;10.20;;;9.30;;
15082;SDS011;7640;53.116;6.878;2023-08-06T07:39:36;9.53;;;8.70;;
15082;SDS011;7640;53.116;6.878;2023-08-06T07:42:05;10.10;;;9.10;;
15082;SDS011;7640;53.116;6.878;2023-08-06T07:44:34;9.90;;;9.00;;
15082;SDS011;7640;53.116;6.878;2023-08-06T07:47:03;9.80;;;8.80;;
15082;SDS011;7640;53.116;6.878;2023-08-06T07:49:34;10.40;;;8.57;;
15082;SDS011;7640;53.116;6.878;2023-08-06T07:52:03;9.40;;;8.60;;
15082;SDS011;7640;53.116;6.878;2023-08-06T07:54:33;10.07;;;8.10;;
15082;SDS011;7640;53.116;6.878;2023-08-06T07:57:02;9.03;;;8.13;;
15082;SDS011;7640;53.116;6.878;2023-08-06T07:59:32;9.13;;;8.23;;
15082;SDS011;7640;53.116;6.878;2023-08-06T08:02:01;9.03;;;7.93;;
15082;SDS011;7640;53.116;6.878;2023-08-06T08:04:31;8.70;;;7.90;;
15082;SDS011;7640;53.116;6.878;2023-08-06T08:07:06;9.43;;;8.63;;
15082;SDS011;7640;53.116;6.878;2023-08-06T08:09:35;9.40;;;8.57;;
15082;SDS011;7640;53.116;6.878;2023-08-06T08:12:04;9.40;;;8.50;;
15082;SDS011;7640;53.116;6.878;2023-08-06T08:14:33;10.00;;;9.00;;
15082;SDS011;7640;53.116;6.878;2023-08-06T08:17:03;9.23;;;8.27;;
15082;SDS011;7640;53.116;6.878;2023-08-06T08:19:33;9.40;;;8.33;;
15082;SDS011;7640;53.116;6.878;2023-08-06T08:22:02;8.93;;;8.17;;
15082;SDS011;7640;53.116;6.878;2023-08-06T08:24:32;7.93;;;7.17;;
15082;SDS011;7640;53.116;6.878;2023-08-06T08:27:01;8.33;;;7.63;;
15082;SDS011;7640;53.116;6.878;2023-08-06T08:29:30;8.77;;;7.93;;
15082;SDS011;7640;53.116;6.878;2023-08-06T08:31:59;9.20;;;8.30;;
15082;SDS011;7640;53.116;6.878;2023-08-06T08:34:27;10.70;;;9.73;;
15082;SDS011;7640;53.116;6.878;2023-08-06T08:36:56;9.53;;;8.63;;
15082;SDS011;7640;53.116;6.878;2023-08-06T08:39:25;12.93;;;10.13;;
15082;SDS011;7640;53.116;6.878;2023-08-06T08:41:56;10.27;;;9.27;;
15082;SDS011;7640;53.116;6.878;2023-08-06T08:44:24;9.77;;;8.77;;
15082;SDS011;7640;53.116;6.878;2023-08-06T08:46:55;10.70;;;8.47;;
15082;SDS011;7640;53.116;6.878;2023-08-06T08:49:26;8.37;;;6.90;;
15082;SDS011;7640;53.116;6.878;2023-08-06T08:51:55;7.17;;;6.50;;
15082;SDS011;7640;53.116;6.878;2023-08-06T08:54:25;8.10;;;7.23;;
15082;SDS011;7640;53.116;6.878;2023-08-06T08:56:56;8.30;;;7.57;;
15082;SDS011;7640;53.116;6.878;2023-08-06T08:59:24;7.87;;;7.20;;
15082;SDS011;7640;53.116;6.878;2023-08-06T09:01:54;7.10;;;6.40;;
15082;SDS011;7640;53.116;6.878;2023-08-06T09:04:24;6.43;;;5.93;;
15082;SDS011;7640;53.116;6.878;2023-08-06T09:07:00;5.70;;;5.20;;
15082;SDS011;7640;53.116;6.878;2023-08-06T09:09:30;6.30;;;5.70;;
15082;SDS011;7640;53.116;6.878;2023-08-06T09:12:06;6.33;;;5.30;;
15082;SDS011;7640;53.116;6.878;2023-08-06T09:14:42;6.22;;;5.38;;
15082;SDS011;7640;53.116;6.878;2023-08-06T09:17:11;5.68;;;5.05;;
15082;SDS011;7640;53.116;6.878;2023-08-06T09:19:41;5.03;;;4.32;;
15082;SDS011;7640;53.116;6.878;2023-08-06T09:22:13;4.18;;;3.80;;
15082;SDS011;7640;53.116;6.878;2023-08-06T09:24:42;3.03;;;2.80;;
15082;SDS011;7640;53.116;6.878;2023-08-06T09:27:13;3.33;;;3.03;;
15082;SDS011;7640;53.116;6.878;2023-08-06T09:29:43;4.63;;;2.80;;
15082;SDS011;7640;53.116;6.878;2023-08-06T09:32:12;3.58;;;3.20;;
15082;SDS011;7640;53.116;6.878;2023-08-06T09:34:41;4.28;;;3.35;;
15082;SDS011;7640;53.116;6.878;2023-08-06T09:37:10;3.25;;;2.72;;
15082;SDS011;7640;53.116;6.878;2023-08-06T09:39:39;3.15;;;2.92;;
15082;SDS011;7640;53.116;6.878;2023-08-06T09:42:08;2.92;;;2.40;;
15082;SDS011;7640;53.116;6.878;2023-08-06T09:44:38;2.55;;;2.35;;
15082;SDS011;7640;53.116;6.878;2023-08-06T09:47:08;2.50;;;2.30;;
15082;SDS011;7640;53.116;6.878;2023-08-06T09:49:40;2.22;;;1.92;;
15082;SDS011;7640;53.116;6.878;2023-08-06T09:52:12;4.10;;;1.98;;
15082;SDS011;7640;53.116;6.878;2023-08-06T09:54:42;1.98;;;1.77;;
15082;SDS011;7640;53.116;6.878;2023-08-06T09:57:12;2.78;;;2.10;;
15082;SDS011;7640;53.116;6.878;2023-08-06T09:59:43;4.80;;;1.95;;
15082;SDS011;7640;53.116;6.878;2023-08-06T10:02:13;3.08;;;2.35;;
15082;SDS011;7640;53.116;6.878;2023-08-06T10:04:43;2.17;;;1.98;;
15082;SDS011;7640;53.116;6.878;2023-08-06T10:07:20;4.40;;;2.58;;
15082;SDS011;7640;53.116;6.878;2023-08-06T10:09:51;2.25;;;1.90;;
15082;SDS011;7640;53.116;6.878;2023-08-06T10:12:19;2.10;;;1.90;;
15082;SDS011;7640;53.116;6.878;2023-08-06T10:14:50;4.13;;;1.88;;
15082;SDS011;7640;53.116;6.878;2023-08-06T10:17:21;3.03;;;2.00;;
15082;SDS011;7640;53.116;6.878;2023-08-06T10:20:07;2.35;;;2.15;;
15082;SDS011;7640;53.116;6.878;2023-08-06T10:22:36;3.28;;;2.00;;
15082;SDS011;7640;53.116;6.878;2023-08-06T10:25:13;2.83;;;2.20;;
15082;SDS011;7640;53.116;6.878;2023-08-06T10:27:53;2.42;;;1.83;;
15082;SDS011;7640;53.116;6.878;2023-08-06T10:30:24;2.28;;;1.90;;
15082;SDS011;7640;53.116;6.878;2023-08-06T10:32:56;3.70;;;1.95;;
15082;SDS011;7640;53.116;6.878;2023-08-06T10:35:28;2.50;;;2.00;;
15082;SDS011;7640;53.116;6.878;2023-08-06T10:38:05;2.50;;;2.05;;
15082;SDS011;7640;53.116;6.878;2023-08-06T10:40:36;3.38;;;2.00;;
15082;SDS011;7640;53.116;6.878;2023-08-06T10:43:11;2.13;;;1.85;;
15082;SDS011;7640;53.116;6.878;2023-08-06T10:45:57;2.10;;;2.00;;
15082;SDS011;7640;53.116;6.878;2023-08-06T10:48:30;2.33;;;1.90;;
15082;SDS011;7640;53.116;6.878;2023-08-06T10:51:02;2.58;;;1.70;;
15082;SDS011;7640;53.116;6.878;2023-08-06T10:53:36;2.63;;;1.95;;
15082;SDS011;7640;53.116;6.878;2023-08-06T10:56:11;1.92;;;1.80;;
15082;SDS011;7640;53.116;6.878;2023-08-06T10:58:41;2.08;;;1.88;;
15082;SDS011;7640;53.116;6.878;2023-08-06T11:01:12;3.00;;;2.30;;
15082;SDS011;7640;53.116;6.878;2023-08-06T11:03:41;1.98;;;1.85;;
15082;SDS011;7640;53.116;6.878;2023-08-06T11:06:10;2.70;;;2.50;;
15082;SDS011;7640;53.116;6.878;2023-08-06T11:08:46;2.58;;;2.30;;
15082;SDS011;7640;53.116;6.878;2023-08-06T11:11:17;4.30;;;2.72;;
15082;SDS011;7640;53.116;6.878;2023-08-06T11:13:47;2.10;;;2.00;;
15082;SDS011;7640;53.116;6.878;2023-08-06T11:16:18;2.40;;;1.98;;
15082;SDS011;7640;53.116;6.878;2023-08-06T11:18:52;1.80;;;1.70;;
15082;SDS011;7640;53.116;6.878;2023-08-06T11:21:23;3.40;;;1.92;;
15082;SDS011;7640;53.116;6.878;2023-08-06T11:23:53;3.80;;;2.55;;
15082;SDS011;7640;53.116;6.878;2023-08-06T11:26:21;2.45;;;2.25;;
15082;SDS011;7640;53.116;6.878;2023-08-06T11:28:50;2.53;;;2.28;;
15082;SDS011;7640;53.116;6.878;2023-08-06T11:31:21;3.13;;;2.53;;
15082;SDS011;7640;53.116;6.878;2023-08-06T11:33:50;3.40;;;2.42;;
15082;SDS011;7640;53.116;6.878;2023-08-06T11:36:28;2.65;;;2.40;;
15082;SDS011;7640;53.116;6.878;2023-08-06T11:38:58;2.40;;;2.20;;
15082;SDS011;7640;53.116;6.878;2023-08-06T11:41:27;2.38;;;2.17;;
15082;SDS011;7640;53.116;6.878;2023-08-06T11:43:57;3.20;;;2.00;;
15082;SDS011;7640;53.116;6.878;2023-08-06T11:46:27;2.03;;;1.88;;
15082;SDS011;7640;53.116;6.878;2023-08-06T11:48:57;2.20;;;2.00;;
15082;SDS011;7640;53.116;6.878;2023-08-06T11:51:27;3.35;;;2.10;;
15082;SDS011;7640;53.116;6.878;2023-08-06T11:53:56;2.25;;;2.00;;
15082;SDS011;7640;53.116;6.878;2023-08-06T11:56:25;2.22;;;2.03;;
15082;SDS011;7640;53.116;6.878;2023-08-06T11:58:54;3.50;;;2.00;;
15082;SDS011;7640;53.116;6.878;2023-08-06T12:01:23;3.42;;;2.10;;
15082;SDS011;7640;53.116;6.878;2023-08-06T12:03:59;1.77;;;1.67;;
15082;SDS011;7640;53.116;6.878;2023-08-06T12:06:28;1.92;;;1.70;;
15082;SDS011;7640;53.116;6.878;2023-08-06T12:08:57;2.95;;;1.90;;
15082;SDS011;7640;53.116;6.878;2023-08-06T12:11:25;2.63;;;1.98;;
15082;SDS011;7640;53.116;6.878;2023-08-06T12:13:54;2.20;;;2.00;;
15082;SDS011;7640;53.116;6.878;2023-08-06T12:16:23;2.83;;;2.03;;
15082;SDS011;7640;53.116;6.878;2023-08-06T12:18:52;2.38;;;1.83;;
15082;SDS011;7640;53.116;6.878;2023-08-06T12:21:22;2.30;;;2.10;;
15082;SDS011;7640;53.116;6.878;2023-08-06T12:23:51;1.88;;;1.73;;
15082;SDS011;7640;53.116;6.878;2023-08-06T12:26:19;2.75;;;2.03;;
15082;SDS011;7640;53.116;6.878;2023-08-06T12:28:47;3.33;;;1.90;;
15082;SDS011;7640;53.116;6.878;2023-08-06T12:31:16;2.50;;;1.67;;
15082;SDS011;7640;53.116;6.878;2023-08-06T12:33:45;1.80;;;1.70;;
15082;SDS011;7640;53.116;6.878;2023-08-06T12:36:13;2.80;;;1.60;;
15082;SDS011;7640;53.116;6.878;2023-08-06T12:38:43;3.15;;;1.60;;
15082;SDS011;7640;53.116;6.878;2023-08-06T12:41:12;2.08;;;1.88;;
15082;SDS011;7640;53.116;6.878;2023-08-06T12:43:41;2.10;;;1.60;;
15082;SDS011;7640;53.116;6.878;2023-08-06T12:46:09;1.80;;;1.70;;
15082;SDS011;7640;53.116;6.878;2023-08-06T12:48:38;2.00;;;1.85;;
15082;SDS011;7640;53.116;6.878;2023-08-06T12:51:07;1.73;;;1.50;;
15082;SDS011;7640;53.116;6.878;2023-08-06T12:53:35;1.70;;;1.60;;
15082;SDS011;7640;53.116;6.878;2023-08-06T12:56:05;1.80;;;1.70;;
15082;SDS011;7640;53.116;6.878;2023-08-06T12:58:34;2.53;;;1.77;;
15082;SDS011;7640;53.116;6.878;2023-08-06T13:01:03;1.70;;;1.60;;
15082;SDS011;7640;53.116;6.878;2023-08-06T13:03:32;2.03;;;1.77;;
15082;SDS011;7640;53.116;6.878;2023-08-06T13:06:00;1.70;;;1.60;;
15082;SDS011;7640;53.116;6.878;2023-08-06T13:08:30;1.73;;;1.60;;
15082;SDS011;7640;53.116;6.878;2023-08-06T13:10:59;1.85;;;1.70;;
15082;SDS011;7640;53.116;6.878;2023-08-06T13:13:32;2.30;;;1.80;;
15082;SDS011;7640;53.116;6.878;2023-08-06T13:16:02;1.80;;;1.70;;
15082;SDS011;7640;53.116;6.878;2023-08-06T13:18:32;1.55;;;1.42;;
15082;SDS011;7640;53.116;6.878;2023-08-06T13:21:00;1.73;;;1.63;;
15082;SDS011;7640;53.116;6.878;2023-08-06T13:23:29;2.13;;;1.88;;
15082;SDS011;7640;53.116;6.878;2023-08-06T13:25:58;1.90;;;1.70;;
15082;SDS011;7640;53.116;6.878;2023-08-06T13:28:28;1.67;;;1.58;;
15082;SDS011;7640;53.116;6.878;2023-08-06T13:30:58;1.85;;;1.58;;
15082;SDS011;7640;53.116;6.878;2023-08-06T13:33:27;1.70;;;1.60;;
15082;SDS011;7640;53.116;6.878;2023-08-06T13:35:56;2.70;;;1.80;;
15082;SDS011;7640;53.116;6.878;2023-08-06T13:38:25;1.65;;;1.55;;
15082;SDS011;7640;53.116;6.878;2023-08-06T13:40:54;1.63;;;1.52;;
15082;SDS011;7640;53.116;6.878;2023-08-06T13:43:24;1.98;;;1.80;;
15082;SDS011;7640;53.116;6.878;2023-08-06T13:45:53;3.90;;;1.55;;
15082;SDS011;7640;53.116;6.878;2023-08-06T13:48:23;1.55;;;1.45;;
15082;SDS011;7640;53.116;6.878;2023-08-06T13:50:52;1.67;;;1.58;;
15082;SDS011;7640;53.116;6.878;2023-08-06T13:53:20;1.67;;;1.58;;
15082;SDS011;7640;53.116;6.878;2023-08-06T13:55:49;1.58;;;1.48;;
15082;SDS011;7640;53.116;6.878;2023-08-06T13:58:17;1.77;;;1.42;;
15082;SDS011;7640;53.116;6.878;2023-08-06T14:00:46;1.50;;;1.40;;
15082;SDS011;7640;53.116;6.878;2023-08-06T14:03:14;2.22;;;1.85;;
15082;SDS011;7640;53.116;6.878;2023-08-06T14:05:44;2.30;;;1.63;;
15082;SDS011;7640;53.116;6.878;2023-08-06T14:08:12;2.28;;;1.65;;
15082;SDS011;7640;53.116;6.878;2023-08-06T14:10:41;1.65;;;1.55;;
15082;SDS011;7640;53.116;6.878;2023-08-06T14:13:09;1.98;;;1.50;;
15082;SDS011;7640;53.116;6.878;2023-08-06T14:15:39;1.90;;;1.70;;
15082;SDS011;7640;53.116;6.878;2023-08-06T14:18:07;2.20;;;1.58;;
15082;SDS011;7640;53.116;6.878;2023-08-06T14:20:36;1.60;;;1.50;;
15082;SDS011;7640;53.116;6.878;2023-08-06T14:23:06;1.80;;;1.35;;
15082;SDS011;7640;53.116;6.878;2023-08-06T14:25:35;1.50;;;1.40;;
15082;SDS011;7640;53.116;6.878;2023-08-06T14:28:04;1.77;;;1.50;;
15082;SDS011;7640;53.116;6.878;2023-08-06T14:30:33;1.40;;;1.30;;
15082;SDS011;7640;53.116;6.878;2023-08-06T14:33:03;1.65;;;1.30;;
15082;SDS011;7640;53.116;6.878;2023-08-06T14:35:51;1.85;;;1.42;;
15082;SDS011;7640;53.116;6.878;2023-08-06T14:38:21;1.58;;;1.40;;
15082;SDS011;7640;53.116;6.878;2023-08-06T14:40:51;1.85;;;1.20;;
15082;SDS011;7640;53.116;6.878;2023-08-06T14:43:19;1.50;;;1.40;;
15082;SDS011;7640;53.116;6.878;2023-08-06T14:45:48;1.50;;;1.40;;
15082;SDS011;7640;53.116;6.878;2023-08-06T14:48:19;1.50;;;1.40;;
15082;SDS011;7640;53.116;6.878;2023-08-06T14:50:47;1.60;;;1.48;;
15082;SDS011;7640;53.116;6.878;2023-08-06T14:53:16;1.70;;;1.60;;
15082;SDS011;7640;53.116;6.878;2023-08-06T14:55:46;4.82;;;1.88;;
15082;SDS011;7640;53.116;6.878;2023-08-06T14:58:15;2.83;;;1.65;;
15082;SDS011;7640;53.116;6.878;2023-08-06T15:00:44;2.40;;;1.80;;
15082;SDS011;7640;53.116;6.878;2023-08-06T15:03:13;2.50;;;1.65;;